Time;durP1;ratioP1;P1;durP2;ratioP2;P2;SDS_P1;SDS_P2;PMS_P1;PMS_P2;Temp;Humidity;BMP_temperature;BMP_pressure;BME280_temperature;BME280_humidity;BME280_pressure;Samples;Min_cycle;Max_cycle;Signal;HPM_P1;HPM_P2
2020/12/27 00:00:40;;;;;;;4.13;2.50;;;6.50;91.30;;;;;;5037345;28;20056;-75
2020/12/27 00:03:06;;;;;;;3.47;1.45;;;6.50;91.40;;;;;;5036811;28;20028;-75
2020/12/27 00:05:33;;;;;;;1.23;1.13;;;6.50;91.30;;;;;;5035700;28;20447;-75
2020/12/27 00:07:59;;;;;;;3.13;1.63;;;6.50;91.30;;;;;;5036058;28;20096;-75
2020/12/27 00:10:24;;;;;;;2.47;1.60;;;6.50;91.30;;;;;;5034058;28;20459;-75
2020/12/27 00:12:50;;;;;;;2.65;1.58;;;6.50;91.20;;;;;;5034377;28;20025;-75
2020/12/27 00:15:15;;;;;;;4.40;1.50;;;6.50;91.20;;;;;;5033904;28;20426;-75
2020/12/27 00:17:43;;;;;;;3.35;1.50;;;6.50;91.10;;;;;;5034756;28;20025;-75
2020/12/27 00:20:09;;;;;;;2.38;1.40;;;6.50;91.20;;;;;;5032985;28;20427;-75
2020/12/27 00:22:35;;;;;;;2.60;1.50;;;6.50;91.10;;;;;;5015781;28;20370;-75
2020/12/27 00:25:00;;;;;;;1.50;1.40;;;6.60;91.20;;;;;;5016267;28;20018;-75
2020/12/27 00:27:26;;;;;;;3.10;1.88;;;6.50;91.00;;;;;;5032404;28;20029;-75
2020/12/27 00:29:52;;;;;;;3.53;1.45;;;6.60;90.80;;;;;;5034194;28;20104;-75
2020/12/27 00:32:17;;;;;;;4.45;1.42;;;6.50;90.80;;;;;;5032283;28;20014;-76
2020/12/27 00:34:43;;;;;;;2.38;1.58;;;6.50;90.80;;;;;;5016295;28;20052;-74
2020/12/27 00:37:09;;;;;;;3.08;2.00;;;6.50;90.60;;;;;;5016507;28;20023;-75
2020/12/27 00:39:42;;;;;;;1.90;1.15;;;6.50;90.60;;;;;;5033150;28;20030;-76
2020/12/27 00:42:07;;;;;;;2.65;1.38;;;6.60;90.60;;;;;;5033948;28;20029;-74
2020/12/27 00:44:33;;;;;;;2.58;1.45;;;6.50;90.60;;;;;;5015644;28;20455;-75
2020/12/27 00:46:58;;;;;;;2.03;1.25;;;6.50;90.60;;;;;;5032759;28;20454;-75
2020/12/27 00:49:24;;;;;;;2.65;1.73;;;6.60;90.60;;;;;;5015700;28;20068;-75
2020/12/27 00:51:50;;;;;;;1.67;1.40;;;6.60;90.60;;;;;;5033953;28;20488;-75
2020/12/27 00:54:16;;;;;;;2.33;1.50;;;6.60;90.60;;;;;;5033168;28;20021;-75
2020/12/27 00:56:42;;;;;;;3.50;1.38;;;6.60;90.40;;;;;;5033869;28;20028;-76
2020/12/27 00:59:07;;;;;;;1.42;1.13;;;6.60;90.50;;;;;;5032382;28;20020;-76
2020/12/27 01:01:33;;;;;;;1.20;1.00;;;6.60;90.50;;;;;;5032789;28;20147;-76
2020/12/27 01:03:59;;;;;;;1.92;1.27;;;6.60;90.50;;;;;;5033475;28;20486;-76
2020/12/27 01:06:26;;;;;;;1.35;1.25;;;6.60;90.40;;;;;;5031560;28;20358;-76
2020/12/27 01:08:57;;;;;;;1.88;1.05;;;6.60;90.30;;;;;;5015458;28;20395;-76
2020/12/27 01:11:23;;;;;;;2.53;1.75;;;6.70;90.40;;;;;;5031818;28;20032;-76
2020/12/27 01:13:48;;;;;;;3.17;1.48;;;6.60;90.30;;;;;;5015703;28;20013;-74
2020/12/27 01:16:19;;;;;;;2.45;1.10;;;6.60;90.40;;;;;;5015574;28;20451;-75
2020/12/27 01:18:50;;;;;;;1.53;1.17;;;6.70;90.30;;;;;;5031783;28;20446;-76
2020/12/27 01:21:26;;;;;;;1.83;1.30;;;6.70;90.20;;;;;;5031912;28;20022;-75
2020/12/27 01:23:52;;;;;;;3.20;1.20;;;6.70;90.20;;;;;;5032956;28;20036;-75
2020/12/27 01:26:26;;;;;;;2.45;1.42;;;6.60;90.20;;;;;;5032818;28;20021;-79
2020/12/27 01:28:52;;;;;;;1.98;1.30;;;6.60;90.00;;;;;;5015650;28;20014;-75
2020/12/27 01:31:21;;;;;;;2.72;1.50;;;6.60;90.00;;;;;;5032933;28;20054;-82
2020/12/27 01:33:47;;;;;;;3.25;1.38;;;6.60;90.00;;;;;;5033122;28;20045;-75
2020/12/27 01:36:13;;;;;;;1.73;1.05;;;6.60;90.00;;;;;;5031349;28;20079;-75
2020/12/27 01:38:38;;;;;;;2.22;1.42;;;6.60;90.00;;;;;;5032260;28;20121;-76
2020/12/27 01:41:04;;;;;;;2.92;1.20;;;6.60;90.00;;;;;;5032763;28;20053;-76
2020/12/27 01:43:30;;;;;;;3.17;1.20;;;6.60;90.10;;;;;;5030280;28;20021;-76
2020/12/27 01:45:56;;;;;;;2.75;1.48;;;6.60;90.10;;;;;;5033062;28;20075;-76
2020/12/27 01:48:22;;;;;;;2.90;1.50;;;6.60;90.00;;;;;;5014450;28;20072;-76
2020/12/27 01:50:50;;;;;;;1.92;1.30;;;6.60;90.10;;;;;;5031367;28;20043;-76
2020/12/27 01:53:15;;;;;;;1.17;1.05;;;6.70;90.10;;;;;;5032744;28;20021;-75
2020/12/27 01:55:41;;;;;;;1.50;1.25;;;6.60;90.00;;;;;;5032045;28;20028;-75
2020/12/27 01:58:15;;;;;;;1.67;0.98;;;6.60;90.00;;;;;;5014871;28;20021;-74
2020/12/27 02:00:42;;;;;;;3.30;1.40;;;6.70;89.80;;;;;;5014070;28;20136;-75
2020/12/27 02:03:09;;;;;;;2.22;1.63;;;6.60;89.60;;;;;;5032533;28;20049;-74
2020/12/27 02:05:35;;;;;;;2.33;1.65;;;6.60;89.50;;;;;;5014371;28;20022;-75
2020/12/27 02:08:01;;;;;;;3.95;1.92;;;6.60;89.20;;;;;;5014984;28;20029;-74
2020/12/27 02:10:29;;;;;;;1.95;1.35;;;6.60;89.30;;;;;;5015967;28;20352;-75
2020/12/27 02:12:55;;;;;;;1.88;1.70;;;6.60;89.50;;;;;;5033322;28;20018;-75
2020/12/27 02:15:21;;;;;;;3.03;1.50;;;6.60;89.60;;;;;;5034792;28;20362;-74
2020/12/27 02:17:46;;;;;;;2.17;1.25;;;6.60;89.40;;;;;;5032496;28;20099;-76
2020/12/27 02:20:12;;;;;;;3.33;1.75;;;6.60;89.60;;;;;;5030996;28;20116;-75
2020/12/27 02:22:40;;;;;;;2.15;1.30;;;6.60;89.70;;;;;;5030441;28;20040;-75
2020/12/27 02:25:06;;;;;;;2.05;1.80;;;6.60;89.50;;;;;;5014540;28;20014;-76
2020/12/27 02:27:33;;;;;;;2.80;1.55;;;6.60;89.20;;;;;;5030172;28;20140;-76
2020/12/27 02:29:59;;;;;;;1.88;1.35;;;6.60;89.20;;;;;;5032031;28;20018;-76
2020/12/27 02:32:25;;;;;;;2.28;1.42;;;6.60;88.90;;;;;;5031550;28;20052;-76
2020/12/27 02:34:50;;;;;;;2.83;1.50;;;6.60;89.00;;;;;;5013803;28;20072;-75
2020/12/27 02:37:16;;;;;;;2.30;1.58;;;6.60;88.90;;;;;;5032201;28;20462;-76
2020/12/27 02:39:42;;;;;;;3.15;1.60;;;6.60;89.00;;;;;;5031795;28;20072;-76
2020/12/27 02:42:07;;;;;;;1.13;0.93;;;6.60;89.20;;;;;;5030652;28;20029;-75
2020/12/27 02:44:43;;;;;;;2.70;1.30;;;6.60;88.60;;;;;;5031647;28;20022;-76
2020/12/27 02:47:08;;;;;;;4.75;1.75;;;6.60;88.60;;;;;;5014378;28;20052;-76
2020/12/27 02:49:34;;;;;;;3.47;1.70;;;6.60;88.40;;;;;;5013540;28;20415;-76
2020/12/27 02:51:59;;;;;;;1.58;0.95;;;6.50;88.50;;;;;;5031657;28;20032;-75
2020/12/27 02:54:25;;;;;;;3.55;1.63;;;6.60;88.60;;;;;;5034182;28;20022;-76
2020/12/27 02:56:51;;;;;;;1.88;1.25;;;6.60;88.40;;;;;;5035940;28;20017;-75
2020/12/27 02:59:17;;;;;;;3.33;1.88;;;6.60;88.30;;;;;;5034574;28;20028;-76
2020/12/27 03:01:42;;;;;;;2.85;1.55;;;6.60;88.20;;;;;;5017170;28;20028;-76
2020/12/27 03:04:08;;;;;;;2.97;1.20;;;6.50;88.10;;;;;;5035784;28;20022;-75
2020/12/27 03:06:34;;;;;;;2.38;1.20;;;6.50;88.20;;;;;;5017473;28;20021;-76
2020/12/27 03:08:59;;;;;;;2.88;1.83;;;6.50;88.10;;;;;;5035915;28;20025;-75
2020/12/27 03:11:25;;;;;;;2.38;1.42;;;6.50;87.90;;;;;;5035299;28;20385;-81
2020/12/27 03:13:52;;;;;;;3.22;1.30;;;6.50;88.10;;;;;;5035594;28;20120;-76
2020/12/27 03:16:18;;;;;;;1.58;1.42;;;6.60;88.20;;;;;;5017813;28;20021;-76
2020/12/27 03:18:44;;;;;;;2.05;1.20;;;6.60;88.00;;;;;;5035036;28;20021;-76
2020/12/27 03:21:10;;;;;;;2.45;1.55;;;6.60;87.60;;;;;;5017581;28;20021;-75
2020/12/27 03:23:35;;;;;;;2.08;1.67;;;6.60;88.00;;;;;;5017258;28;20048;-76
2020/12/27 03:26:01;;;;;;;2.58;1.58;;;6.50;87.90;;;;;;5035462;28;20025;-75
2020/12/27 03:28:27;;;;;;;2.17;1.33;;;6.60;87.80;;;;;;5034799;28;20476;-78
2020/12/27 03:30:52;;;;;;;2.58;1.25;;;6.50;87.60;;;;;;5035418;28;20112;-74
2020/12/27 03:33:18;;;;;;;3.80;1.50;;;6.50;87.80;;;;;;5017248;28;20341;-75
2020/12/27 03:35:43;;;;;;;2.55;1.70;;;6.50;87.80;;;;;;5017094;28;20125;-75
2020/12/27 03:38:09;;;;;;;3.95;2.35;;;6.60;87.70;;;;;;5035758;28;20020;-74
2020/12/27 03:40:35;;;;;;;3.50;1.63;;;6.60;87.50;;;;;;5016841;28;20032;-75
2020/12/27 03:43:00;;;;;;;1.23;1.10;;;6.50;87.30;;;;;;5035331;28;20018;-75
2020/12/27 03:45:26;;;;;;;2.97;1.65;;;6.50;87.50;;;;;;5035192;28;20454;-75
2020/12/27 03:47:54;;;;;;;2.20;1.20;;;6.60;87.70;;;;;;5016914;28;20419;-75
2020/12/27 03:50:21;;;;;;;3.42;1.50;;;6.60;87.80;;;;;;5033558;28;20017;-75
2020/12/27 03:52:47;;;;;;;3.15;1.85;;;6.60;87.80;;;;;;5034085;28;20029;-75
2020/12/27 03:55:12;;;;;;;1.67;1.40;;;6.60;87.70;;;;;;5035273;28;20079;-75
2020/12/27 03:57:38;;;;;;;2.28;1.15;;;6.60;87.90;;;;;;5032616;28;20382;-75
2020/12/27 04:00:04;;;;;;;2.08;1.17;;;6.60;88.10;;;;;;5017025;28;20112;-75
2020/12/27 04:02:29;;;;;;;1.73;1.40;;;6.60;88.00;;;;;;5034165;28;20022;-76
2020/12/27 04:04:55;;;;;;;1.40;1.30;;;6.50;87.40;;;;;;5033797;28;20043;-75
2020/12/27 04:07:21;;;;;;;1.45;1.27;;;6.50;87.60;;;;;;5033316;28;20021;-76
2020/12/27 04:09:46;;;;;;;2.33;1.63;;;6.40;87.50;;;;;;5032776;28;20462;-75
2020/12/27 04:12:13;;;;;;;1.58;1.20;;;6.50;87.50;;;;;;5034633;28;20098;-74
2020/12/27 04:14:40;;;;;;;2.38;1.70;;;6.50;87.60;;;;;;5034068;28;20100;-75
2020/12/27 04:17:06;;;;;;;1.45;1.15;;;6.50;87.50;;;;;;5034705;28;20024;-75
2020/12/27 04:19:31;;;;;;;1.80;1.25;;;6.50;87.40;;;;;;5034465;28;20104;-76
2020/12/27 04:21:57;;;;;;;1.63;1.00;;;6.50;87.50;;;;;;5034458;28;20167;-75
2020/12/27 04:24:22;;;;;;;1.80;1.20;;;6.50;87.40;;;;;;5035196;28;20025;-73
2020/12/27 04:26:48;;;;;;;1.13;1.02;;;6.50;87.10;;;;;;5033612;28;20137;-75
2020/12/27 04:29:14;;;;;;;1.88;1.42;;;6.40;86.70;;;;;;5034283;28;20013;-75
2020/12/27 04:31:39;;;;;;;2.60;1.23;;;6.40;86.80;;;;;;5015825;28;20098;-76
2020/12/27 04:34:05;;;;;;;2.63;1.10;;;6.50;87.20;;;;;;5034142;28;20429;-74
2020/12/27 04:36:31;;;;;;;2.15;1.25;;;6.40;86.60;;;;;;5016223;28;20017;-75
2020/12/27 04:38:57;;;;;;;2.97;1.20;;;6.40;86.70;;;;;;5016019;28;20091;-75
2020/12/27 04:41:23;;;;;;;2.08;1.10;;;6.40;86.70;;;;;;5034023;28;20439;-75
2020/12/27 04:43:49;;;;;;;1.58;1.38;;;6.40;86.60;;;;;;5033407;28;20512;-75
2020/12/27 04:46:16;;;;;;;3.20;1.35;;;6.50;86.60;;;;;;5034010;28;20017;-75
2020/12/27 04:48:43;;;;;;;0.93;0.80;;;6.50;86.70;;;;;;5032019;28;20424;-74
2020/12/27 04:51:10;;;;;;;1.23;1.10;;;6.50;86.60;;;;;;5016042;28;20021;-75
2020/12/27 04:53:37;;;;;;;2.53;1.20;;;6.50;86.40;;;;;;5033037;28;20518;-75
2020/12/27 04:56:05;;;;;;;1.45;1.13;;;6.60;86.70;;;;;;5015704;28;20013;-75
2020/12/27 04:58:31;;;;;;;2.75;1.00;;;6.60;86.50;;;;;;5033379;28;20017;-74
2020/12/27 05:00:58;;;;;;;1.45;1.35;;;6.60;86.40;;;;;;5033207;28;20175;-75
2020/12/27 05:03:24;;;;;;;2.63;1.55;;;6.50;86.30;;;;;;5033658;28;20026;-75
2020/12/27 05:05:51;;;;;;;1.05;0.90;;;6.60;86.50;;;;;;5032810;28;20016;-75
2020/12/27 05:08:18;;;;;;;1.73;0.82;;;6.60;87.10;;;;;;5015591;28;20374;-75
2020/12/27 05:10:44;;;;;;;1.63;1.23;;;6.60;86.60;;;;;;5032896;28;20529;-73
2020/12/27 05:13:11;;;;;;;4.10;1.30;;;6.60;86.60;;;;;;5015561;28;20017;-75
2020/12/27 05:15:38;;;;;;;0.82;0.70;;;6.50;86.50;;;;;;5032673;28;20103;-75
2020/12/27 05:18:08;;;;;;;0.98;0.80;;;6.50;86.60;;;;;;5033507;28;20108;-75
2020/12/27 05:20:35;;;;;;;0.80;0.80;;;6.50;86.80;;;;;;5015446;28;20381;-75
2020/12/27 05:23:03;;;;;;;2.15;1.30;;;6.50;87.00;;;;;;5032925;28;20518;-75
2020/12/27 05:25:29;;;;;;;0.93;0.70;;;6.50;87.10;;;;;;5033192;28;20526;-75
2020/12/27 05:28:01;;;;;;;2.53;0.80;;;6.50;87.10;;;;;;5014832;28;20242;-74
2020/12/27 05:30:28;;;;;;;0.77;0.63;;;6.50;87.30;;;;;;5033304;28;20029;-75
2020/12/27 05:32:54;;;;;;;1.73;1.05;;;6.40;87.50;;;;;;5014479;28;20441;-74
2020/12/27 05:35:20;;;;;;;0.70;0.70;;;6.40;87.60;;;;;;5015283;28;20018;-75
2020/12/27 05:37:48;;;;;;;0.75;0.68;;;6.40;87.90;;;;;;5032272;28;20036;-74
2020/12/27 05:40:13;;;;;;;1.02;0.77;;;6.40;88.30;;;;;;5032790;28;20520;-75
2020/12/27 05:42:40;;;;;;;1.05;0.70;;;6.30;88.40;;;;;;5030930;28;20040;-75
2020/12/27 05:45:19;;;;;;;1.50;0.60;;;6.30;88.60;;;;;;5032995;28;20423;-75
2020/12/27 05:47:46;;;;;;;1.10;0.70;;;6.30;88.90;;;;;;5014249;28;20018;-75
2020/12/27 05:50:17;;;;;;;1.00;0.98;;;6.20;89.30;;;;;;5015246;28;20017;-75
2020/12/27 05:52:48;;;;;;;1.25;0.80;;;6.20;89.40;;;;;;5031868;28;20021;-75
2020/12/27 05:55:21;;;;;;;0.63;0.63;;;6.20;89.60;;;;;;5032766;28;20013;-74
2020/12/27 05:57:50;;;;;;;0.60;0.60;;;6.20;90.00;;;;;;5032153;28;20104;-76
2020/12/27 06:00:18;;;;;;;0.70;0.70;;;6.10;90.00;;;;;;5032560;28;20071;-75
2020/12/27 06:02:44;;;;;;;0.50;0.50;;;6.10;90.10;;;;;;5031955;28;20025;-75
2020/12/27 06:05:14;;;;;;;0.50;0.50;;;6.10;90.20;;;;;;5032530;28;20097;-75
2020/12/27 06:07:46;;;;;;;1.27;0.70;;;6.10;90.30;;;;;;5031858;28;20041;-75
2020/12/27 06:10:16;;;;;;;0.70;0.70;;;6.10;90.40;;;;;;5014818;28;20018;-74
2020/12/27 06:12:57;;;;;;;0.70;0.63;;;6.10;90.60;;;;;;5031751;28;20021;-75
2020/12/27 06:15:24;;;;;;;2.13;1.85;;;6.10;90.70;;;;;;5014399;28;20025;-75
2020/12/27 06:17:53;;;;;;;0.47;0.47;;;6.00;90.80;;;;;;5030383;28;20022;-75
2020/12/27 06:20:20;;;;;;;1.45;0.80;;;6.00;90.90;;;;;;5014726;28;20026;-75
2020/12/27 06:22:50;;;;;;;0.45;0.45;;;6.00;91.00;;;;;;5031409;28;20037;-75
2020/12/27 06:25:17;;;;;;;0.73;0.60;;;6.00;91.10;;;;;;5032271;28;20519;-75
2020/12/27 06:27:44;;;;;;;0.70;0.70;;;6.00;91.20;;;;;;5031418;28;20017;-76
2020/12/27 06:30:15;;;;;;;0.60;0.60;;;6.00;91.30;;;;;;5013932;28;20014;-77
2020/12/27 06:32:42;;;;;;;;;;;6.00;91.50;;;;;;5012547;28;20482;-78
2020/12/27 06:35:08;;;;;;;0.57;0.57;;;5.90;91.50;;;;;;5012295;28;19920;-75
2020/12/27 06:37:39;;;;;;;0.50;0.50;;;5.90;91.60;;;;;;4994639;28;20022;-75
2020/12/27 06:40:04;;;;;;;0.60;0.60;;;6.00;91.70;;;;;;5011528;28;20022;-76
2020/12/27 06:42:30;;;;;;;1.00;0.60;;;5.90;91.80;;;;;;5012233;28;20217;-75
2020/12/27 06:44:56;;;;;;;0.60;0.60;;;5.90;91.90;;;;;;4993951;28;20165;-75
2020/12/27 06:47:46;;;;;;;0.90;0.80;;;5.90;92.10;;;;;;4994720;28;20108;-74
2020/12/27 06:50:23;;;;;;;0.60;0.60;;;5.90;92.20;;;;;;4994722;28;20352;-75
2020/12/27 06:52:49;;;;;;;1.08;0.90;;;5.90;92.40;;;;;;5011477;28;20104;-76
2020/12/27 06:55:34;;;;;;;0.52;0.52;;;5.90;92.50;;;;;;4994583;28;20144;-75
2020/12/27 06:58:21;;;;;;;0.50;0.50;;;5.90;92.50;;;;;;4993806;28;20021;-76
2020/12/27 07:00:47;;;;;;;0.75;0.60;;;5.90;92.50;;;;;;4993993;28;20392;-75
2020/12/27 07:03:18;;;;;;;0.63;0.60;;;5.90;92.60;;;;;;5011596;28;20037;-76
2020/12/27 07:05:45;;;;;;;0.82;0.70;;;5.90;92.60;;;;;;5011367;28;20018;-76
2020/12/27 07:08:14;;;;;;;0.60;0.60;;;5.90;92.80;;;;;;4994540;28;20075;-76
2020/12/27 07:10:51;;;;;;;0.50;0.50;;;5.90;92.70;;;;;;5012091;28;20015;-76
2020/12/27 07:13:17;;;;;;;0.70;0.70;;;5.90;92.80;;;;;;4994555;28;20120;-76
2020/12/27 07:15:48;;;;;;;0.50;0.50;;;5.90;92.80;;;;;;5011469;28;20018;-82
2020/12/27 07:18:28;;;;;;;0.55;0.55;;;6.00;92.90;;;;;;4994422;28;20336;-77
2020/12/27 07:20:58;;;;;;;0.60;0.60;;;6.00;92.90;;;;;;4993721;28;20455;-77
2020/12/27 07:23:32;;;;;;;1.33;0.63;;;6.00;92.90;;;;;;5012127;28;20018;-76
2020/12/27 07:26:02;;;;;;;0.50;0.50;;;6.00;92.90;;;;;;4993902;28;20018;-76
2020/12/27 07:28:29;;;;;;;0.73;0.60;;;6.00;93.00;;;;;;5011799;28;20032;-76
2020/12/27 07:30:57;;;;;;;1.88;0.63;;;6.00;93.00;;;;;;5011531;28;20036;-76
2020/12/27 07:33:35;;;;;;;1.00;0.70;;;6.00;93.00;;;;;;5011896;28;20042;-76
2020/12/27 07:36:09;;;;;;;0.63;0.63;;;6.00;93.10;;;;;;4993870;28;20459;-76
2020/12/27 07:39:01;;;;;;;0.80;0.63;;;6.00;93.10;;;;;;4994306;28;20109;-76
2020/12/27 07:41:30;;;;;;;1.75;0.75;;;6.10;93.10;;;;;;4996734;28;20026;-76
2020/12/27 07:43:57;;;;;;;1.48;0.70;;;6.00;93.10;;;;;;4997351;28;20026;-77
2020/12/27 07:46:24;;;;;;;0.75;0.70;;;6.00;93.20;;;;;;4997752;28;20033;-77
2020/12/27 07:48:50;;;;;;;1.02;0.60;;;6.00;93.20;;;;;;4997138;28;20021;-77
2020/12/27 07:51:16;;;;;;;0.70;0.65;;;6.10;93.20;;;;;;4997727;28;20112;-77
2020/12/27 07:53:53;;;;;;;1.23;0.80;;;6.00;93.20;;;;;;4997650;28;20018;-77
2020/12/27 07:56:23;;;;;;;0.70;0.60;;;6.10;93.30;;;;;;4997243;28;20018;-76
2020/12/27 07:58:52;;;;;;;0.50;0.50;;;6.10;93.20;;;;;;5014585;28;20083;-77
2020/12/27 08:01:24;;;;;;;0.47;0.47;;;6.10;93.20;;;;;;4997508;28;20342;-77
2020/12/27 08:04:08;;;;;;;0.50;0.50;;;6.10;93.20;;;;;;4996999;28;20026;-77
2020/12/27 08:06:36;;;;;;;0.60;0.60;;;6.20;93.10;;;;;;5014704;28;20071;-76
2020/12/27 08:09:07;;;;;;;0.47;0.47;;;6.10;93.10;;;;;;4996789;28;20026;-77
2020/12/27 08:11:35;;;;;;;0.60;0.60;;;6.20;93.10;;;;;;5014802;28;20102;-76
2020/12/27 08:14:04;;;;;;;0.57;0.57;;;6.20;93.10;;;;;;5014214;28;20486;-76
2020/12/27 08:16:30;;;;;;;0.50;0.50;;;6.20;93.10;;;;;;5013698;28;20430;-77
2020/12/27 08:19:22;;;;;;;0.98;0.82;;;6.20;93.10;;;;;;4996667;28;20426;-76
2020/12/27 08:21:47;;;;;;;0.90;0.70;;;6.20;92.90;;;;;;4994128;28;20368;-76
2020/12/27 08:24:15;;;;;;;1.13;1.08;;;6.20;92.90;;;;;;4996570;28;20025;-76
2020/12/27 08:26:46;;;;;;;0.63;0.63;;;6.20;92.90;;;;;;5014401;28;20101;-76
2020/12/27 08:29:25;;;;;;;0.60;0.60;;;6.20;92.90;;;;;;4996552;28;20467;-76
2020/12/27 08:32:03;;;;;;;0.73;0.50;;;6.30;92.90;;;;;;5014035;28;20050;-77
2020/12/27 08:34:29;;;;;;;0.50;0.50;;;6.30;92.90;;;;;;5013160;28;20084;-75
2020/12/27 08:36:57;;;;;;;0.93;0.60;;;6.40;92.70;;;;;;4996325;28;20145;-77
2020/12/27 08:39:36;;;;;;;0.50;0.50;;;6.40;92.70;;;;;;5014603;28;20021;-76
2020/12/27 08:42:06;;;;;;;0.60;0.60;;;6.40;92.60;;;;;;5014285;28;20030;-76
2020/12/27 08:44:35;;;;;;;0.40;0.40;;;6.50;92.60;;;;;;5014906;28;20033;-75
2020/12/27 08:47:04;;;;;;;0.43;0.43;;;6.40;92.40;;;;;;5014145;28;20014;-76
2020/12/27 08:50:13;;;;;;;0.85;0.60;;;6.50;92.50;;;;;;5014852;28;20022;-76
2020/12/27 08:52:39;;;;;;;0.55;0.50;;;6.50;92.30;;;;;;4937992;29;20461;-76
2020/12/27 08:55:09;;;;;;;0.75;0.50;;;6.50;92.20;;;;;;4937537;29;20019;-76
2020/12/27 08:57:36;;;;;;;0.40;0.40;;;6.50;92.20;;;;;;4938418;29;20027;-76
2020/12/27 09:00:12;;;;;;;0.47;0.47;;;6.60;92.20;;;;;;4937412;29;20030;-78
2020/12/27 09:02:40;;;;;;;0.60;0.60;;;6.60;92.20;;;;;;4937671;29;20358;-76
2020/12/27 09:05:13;;;;;;;0.60;0.60;;;6.60;92.20;;;;;;4937368;29;20070;-75
2020/12/27 09:07:44;;;;;;;0.50;0.50;;;6.60;92.20;;;;;;4954366;29;20039;-75
2020/12/27 09:10:26;;;;;;;0.65;0.65;;;6.60;92.20;;;;;;4937361;29;20031;-76
2020/12/27 09:13:06;;;;;;;0.60;0.60;;;6.60;92.20;;;;;;4953282;29;20028;-82
2020/12/27 09:15:35;;;;;;;0.70;0.70;;;6.60;92.30;;;;;;4952886;29;20083;-76
2020/12/27 09:18:09;;;;;;;0.47;0.47;;;6.50;92.30;;;;;;4952186;29;20066;-76
2020/12/27 09:20:37;;;;;;;0.82;0.73;;;6.60;92.40;;;;;;4952912;29;20030;-76
2020/12/27 09:23:16;;;;;;;0.40;0.40;;;6.50;92.40;;;;;;4975992;28;20041;-77
2020/12/27 09:25:43;;;;;;;0.63;0.60;;;6.60;92.40;;;;;;5013364;28;20026;-76
2020/12/27 09:28:16;;;;;;;0.40;0.40;;;6.50;92.50;;;;;;5012630;28;20056;-76
2020/12/27 09:30:42;;;;;;;0.50;0.50;;;6.50;92.60;;;;;;4995818;28;20028;-76
2020/12/27 09:33:08;;;;;;;0.40;0.40;;;6.50;92.60;;;;;;4994754;28;20014;-75
2020/12/27 09:35:34;;;;;;;0.55;0.55;;;6.40;92.60;;;;;;5013484;28;20025;-75
2020/12/27 09:38:00;;;;;;;0.40;0.40;;;6.50;92.70;;;;;;5012648;28;20367;-76
2020/12/27 09:40:26;;;;;;;0.60;0.60;;;6.40;92.70;;;;;;4995359;28;20104;-76
2020/12/27 09:43:03;;;;;;;0.63;0.63;;;6.40;92.80;;;;;;5013125;28;20136;-75
2020/12/27 09:45:30;;;;;;;0.45;0.45;;;6.50;92.80;;;;;;5013019;28;20049;-76
2020/12/27 09:47:56;;;;;;;1.67;0.90;;;6.40;92.90;;;;;;5012414;28;20026;-78
2020/12/27 09:50:44;;;;;;;2.38;0.88;;;6.40;92.90;;;;;;4995716;28;20025;-75
2020/12/27 09:53:18;;;;;;;0.68;0.68;;;6.40;92.90;;;;;;4986882;28;20124;-75
2020/12/27 09:55:44;;;;;;;0.70;0.57;;;6.50;93.00;;;;;;5012727;28;20018;-75
2020/12/27 09:58:12;;;;;;;1.02;0.70;;;6.40;92.90;;;;;;4994355;28;20033;-76
2020/12/27 10:00:44;;;;;;;0.63;0.63;;;6.50;93.00;;;;;;5012598;28;20037;-75
2020/12/27 10:03:09;;;;;;;1.13;0.73;;;6.50;93.00;;;;;;4993711;28;20044;-75
2020/12/27 10:05:35;;;;;;;2.15;0.55;;;6.40;93.00;;;;;;4995006;28;20022;-75
2020/12/27 10:08:03;;;;;;;0.50;0.50;;;6.40;93.00;;;;;;5012003;28;20050;-75
2020/12/27 10:10:29;;;;;;;0.98;0.70;;;6.40;93.10;;;;;;5012627;28;20025;-75
2020/12/27 10:12:55;;;;;;;0.50;0.50;;;6.50;93.10;;;;;;5012716;28;20029;-75
2020/12/27 10:15:20;;;;;;;0.70;0.57;;;6.50;93.10;;;;;;4994323;28;20021;-75
2020/12/27 10:17:46;;;;;;;1.27;0.80;;;6.50;93.10;;;;;;5027605;28;20053;-76
2020/12/27 10:20:12;;;;;;;1.15;0.70;;;6.50;93.10;;;;;;5027044;28;20064;-75
2020/12/27 10:22:38;;;;;;;0.57;0.57;;;6.40;93.10;;;;;;4994796;28;20084;-75
2020/12/27 10:25:05;;;;;;;0.60;0.60;;;6.50;93.20;;;;;;4994289;28;20455;-75
2020/12/27 10:27:32;;;;;;;0.77;0.60;;;6.40;93.20;;;;;;5011908;28;20022;-75
2020/12/27 10:29:59;;;;;;;0.82;0.82;;;6.50;93.30;;;;;;5011927;28;20025;-81
2020/12/27 10:32:25;;;;;;;0.60;0.60;;;6.50;93.30;;;;;;4994623;28;20026;-75
2020/12/27 10:34:50;;;;;;;0.77;0.55;;;6.50;93.20;;;;;;4994183;28;20049;-75
2020/12/27 10:37:17;;;;;;;0.75;0.70;;;6.50;93.20;;;;;;4993749;28;20050;-75
2020/12/27 10:39:42;;;;;;;0.60;0.60;;;6.50;93.30;;;;;;4994637;28;20068;-75
2020/12/27 10:42:09;;;;;;;0.50;0.50;;;6.50;93.30;;;;;;5011645;28;20029;-75
2020/12/27 10:44:34;;;;;;;0.47;0.47;;;6.50;93.20;;;;;;5012756;28;20025;-75
2020/12/27 10:47:00;;;;;;;0.80;0.60;;;6.50;93.20;;;;;;5011581;28;20097;-76
2020/12/27 10:49:25;;;;;;;2.83;0.60;;;6.50;93.30;;;;;;4994510;28;20021;-74
2020/12/27 10:51:52;;;;;;;0.60;0.60;;;6.50;93.30;;;;;;5011780;28;20026;-75
2020/12/27 10:54:18;;;;;;;0.52;0.52;;;6.50;93.30;;;;;;5011886;28;20109;-75
2020/12/27 10:56:45;;;;;;;0.82;0.80;;;6.50;93.30;;;;;;5009236;28;20542;-75
2020/12/27 10:59:11;;;;;;;1.25;0.60;;;6.50;93.30;;;;;;5030936;28;20044;-75
2020/12/27 11:01:42;;;;;;;0.50;0.50;;;6.50;93.30;;;;;;5013905;28;20068;-75
2020/12/27 11:04:08;;;;;;;0.70;0.70;;;6.50;93.30;;;;;;5031080;28;20060;-75
2020/12/27 11:06:33;;;;;;;0.50;0.50;;;6.50;93.30;;;;;;5014004;28;20025;-75
2020/12/27 11:08:59;;;;;;;0.50;0.50;;;6.50;93.30;;;;;;5029967;28;20056;-75
2020/12/27 11:11:25;;;;;;;0.70;0.70;;;6.60;93.30;;;;;;5013297;28;20021;-75
2020/12/27 11:13:51;;;;;;;0.73;0.50;;;6.50;93.20;;;;;;5014117;28;20021;-75
2020/12/27 11:16:17;;;;;;;0.60;0.60;;;6.50;93.20;;;;;;5034883;28;20101;-75
2020/12/27 11:18:43;;;;;;;0.50;0.50;;;6.60;93.20;;;;;;5035516;28;20017;-74
2020/12/27 11:21:18;;;;;;;0.57;0.57;;;6.60;93.20;;;;;;5033585;28;20116;-75
2020/12/27 11:23:54;;;;;;;0.50;0.50;;;6.60;93.20;;;;;;5017858;28;20026;-75
2020/12/27 11:26:20;;;;;;;0.63;0.60;;;6.60;93.10;;;;;;5034823;28;20017;-75
2020/12/27 11:28:47;;;;;;;0.40;0.40;;;6.60;93.10;;;;;;5035190;28;20075;-75
2020/12/27 11:31:15;;;;;;;0.50;0.50;;;6.60;93.30;;;;;;5033107;28;20028;-75
2020/12/27 11:33:40;;;;;;;0.50;0.50;;;6.70;93.00;;;;;;5035009;28;20045;-75
2020/12/27 11:36:06;;;;;;;0.40;0.40;;;6.70;93.00;;;;;;5016910;28;20028;-75
2020/12/27 11:38:32;;;;;;;0.65;0.65;;;6.70;93.00;;;;;;5017182;28;20018;-75
2020/12/27 11:40:57;;;;;;;0.50;0.50;;;6.70;92.90;;;;;;5035002;28;20025;-75
2020/12/27 11:43:23;;;;;;;0.50;0.50;;;6.70;92.90;;;;;;5034741;28;20036;-75
2020/12/27 11:45:48;;;;;;;1.50;0.70;;;6.70;92.80;;;;;;5033668;28;20017;-74
2020/12/27 11:48:14;;;;;;;0.70;0.52;;;6.70;92.80;;;;;;5016665;28;20032;-74
2020/12/27 11:50:40;;;;;;;0.75;0.75;;;6.80;92.80;;;;;;5034798;28;20459;-74
2020/12/27 11:53:05;;;;;;;0.57;0.57;;;6.80;92.80;;;;;;5034702;28;20052;-75
2020/12/27 11:55:31;;;;;;;0.50;0.50;;;6.80;92.70;;;;;;5034580;28;20025;-74
2020/12/27 11:57:56;;;;;;;0.85;0.70;;;6.80;92.60;;;;;;5034649;28;20017;-74
2020/12/27 12:00:22;;;;;;;1.17;0.52;;;6.90;92.50;;;;;;5033793;28;20026;-75
2020/12/27 12:02:48;;;;;;;0.60;0.60;;;6.90;92.50;;;;;;5016477;28;20025;-74
2020/12/27 12:05:13;;;;;;;0.50;0.50;;;6.90;92.40;;;;;;5016154;28;20528;-74
2020/12/27 12:07:39;;;;;;;0.52;0.52;;;6.90;92.30;;;;;;5034387;28;20104;-75
2020/12/27 12:10:05;;;;;;;0.50;0.50;;;6.90;92.30;;;;;;5034357;28;20374;-74
2020/12/27 12:12:30;;;;;;;0.52;0.52;;;6.90;92.30;;;;;;5016506;28;20216;-74
2020/12/27 12:14:56;;;;;;;0.50;0.50;;;7.00;92.20;;;;;;5016718;28;20112;-74
2020/12/27 12:17:22;;;;;;;0.70;0.70;;;7.00;92.10;;;;;;5032514;28;20071;-74
2020/12/27 12:19:48;;;;;;;0.57;0.50;;;7.00;92.00;;;;;;5034784;28;20036;-74
2020/12/27 12:22:13;;;;;;;0.57;0.57;;;7.00;91.90;;;;;;5032269;28;20462;-74
2020/12/27 12:24:39;;;;;;;0.60;0.60;;;7.00;91.80;;;;;;5032876;28;20491;-74
2020/12/27 12:27:05;;;;;;;1.88;1.30;;;7.10;91.80;;;;;;5032141;28;20024;-74
2020/12/27 12:29:32;;;;;;;0.88;0.60;;;7.10;91.70;;;;;;5033531;28;20065;-74
2020/12/27 12:31:57;;;;;;;0.50;0.50;;;7.10;91.50;;;;;;5034078;28;20117;-74
2020/12/27 12:34:23;;;;;;;0.50;0.40;;;7.10;91.40;;;;;;5033104;28;20077;-74
2020/12/27 12:36:49;;;;;;;0.65;0.60;;;7.10;91.30;;;;;;5016238;28;20020;-74
2020/12/27 12:39:15;;;;;;;0.40;0.40;;;7.10;91.30;;;;;;5033363;28;20025;-74
2020/12/27 12:41:41;;;;;;;0.45;0.45;;;7.20;91.20;;;;;;5033771;28;20033;-74
2020/12/27 12:44:06;;;;;;;0.63;0.50;;;7.20;91.20;;;;;;5034066;28;20389;-73
2020/12/27 12:46:32;;;;;;;0.40;0.40;;;7.20;91.00;;;;;;5015558;28;20339;-74
2020/12/27 12:48:58;;;;;;;0.47;0.47;;;7.20;90.90;;;;;;5034178;28;20026;-73
2020/12/27 12:51:24;;;;;;;0.40;0.40;;;7.20;90.70;;;;;;5033881;28;20026;-73
2020/12/27 12:53:50;;;;;;;0.82;0.50;;;7.30;90.70;;;;;;5034197;28;20063;-74
2020/12/27 12:56:16;;;;;;;0.40;0.40;;;7.30;90.70;;;;;;5032273;28;20052;-74
2020/12/27 12:58:41;;;;;;;0.63;0.60;;;7.30;90.50;;;;;;5034183;28;20021;-75
2020/12/27 13:01:09;;;;;;;0.40;0.40;;;7.30;90.50;;;;;;5032207;28;20053;-74